createdAt,value
2023-02-17T00:00:53.398Z,45.22
2023-02-17T00:03:22.739Z,44.22
2023-02-17T00:05:51.062Z,43.05
2023-02-17T00:08:18.203Z,44.45
2023-02-17T00:10:45.094Z,48.13
2023-02-17T00:13:11.919Z,50.60
2023-02-17T00:15:39.576Z,59.60
2023-02-17T00:18:06.707Z,63.83
2023-02-17T00:20:33.529Z,59.90
2023-02-17T00:23:00.310Z,51.33
2023-02-17T00:25:27.171Z,60.65
2023-02-17T00:27:54.020Z,50.17
2023-02-17T00:30:20.916Z,47.78
2023-02-17T00:32:48.373Z,45.58
2023-02-17T00:35:15.206Z,43.20
2023-02-17T00:37:45.911Z,44.42
2023-02-17T00:40:13.066Z,44.55
2023-02-17T00:42:39.777Z,47.53
2023-02-17T00:45:06.612Z,41.05
2023-02-17T00:47:33.472Z,40.38
2023-02-17T00:50:00.194Z,42.63
2023-02-17T00:52:27.085Z,43.72
2023-02-17T00:54:53.904Z,43.22
2023-02-17T00:57:20.667Z,41.65
2023-02-17T00:59:47.306Z,42.65
2023-02-17T01:02:14.065Z,45.05
2023-02-17T01:04:40.839Z,43.10
2023-02-17T01:07:07.699Z,41.10
2023-02-17T01:09:34.525Z,42.70
2023-02-17T01:12:01.368Z,43.20
2023-02-17T01:14:28.140Z,44.75
2023-02-17T01:16:55.955Z,42.75
2023-02-17T01:19:24.870Z,44.00
2023-02-17T01:21:51.753Z,46.00
2023-02-17T01:24:18.435Z,44.25
2023-02-17T01:26:45.206Z,44.28
2023-02-17T01:29:11.896Z,40.67
2023-02-17T01:31:39.720Z,41.42
2023-02-17T01:34:06.534Z,39.45
2023-02-17T01:36:33.778Z,40.25
2023-02-17T01:39:00.680Z,40.33
2023-02-17T01:41:28.229Z,39.92
2023-02-17T01:44:09.351Z,37.22
2023-02-17T01:46:37.712Z,40.10
2023-02-17T01:49:10.702Z,37.90
2023-02-17T01:51:37.984Z,40.15
2023-02-17T01:54:08.056Z,39.80
2023-02-17T01:56:37.700Z,39.63
2023-02-17T01:59:07.228Z,40.67
2023-02-17T02:01:34.457Z,42.80
2023-02-17T02:04:03.127Z,40.95
2023-02-17T02:06:31.075Z,38.40
2023-02-17T02:09:07.106Z,40.35
2023-02-17T02:11:34.690Z,39.33
2023-02-17T02:14:02.768Z,38.80
2023-02-17T02:16:34.111Z,40.25
2023-02-17T02:19:19.926Z,39.45
2023-02-17T02:21:58.810Z,38.33
2023-02-17T02:24:39.544Z,36.95
2023-02-17T02:27:24.700Z,35.83
2023-02-17T02:30:01.304Z,36.83
2023-02-17T02:32:40.297Z,35.10
2023-02-17T02:35:13.507Z,30.60
2023-02-17T02:37:46.904Z,33.50
2023-02-17T02:40:14.689Z,35.50
2023-02-17T02:42:42.178Z,38.10
2023-02-17T02:45:10.667Z,39.10
2023-02-17T02:47:40.496Z,36.63
2023-02-17T02:50:07.810Z,36.75
2023-02-17T02:52:42.755Z,35.35
2023-02-17T02:55:18.426Z,35.17
2023-02-17T02:58:02.595Z,35.33
2023-02-17T03:00:43.840Z,35.22
2023-02-17T03:03:28.842Z,37.60
2023-02-17T03:05:59.891Z,35.88
2023-02-17T03:08:31.747Z,36.75
2023-02-17T03:10:58.722Z,37.17
2023-02-17T03:13:26.124Z,36.55
2023-02-17T03:15:53.060Z,37.17
2023-02-17T03:18:19.926Z,36.83
2023-02-17T03:20:50.939Z,33.85
2023-02-17T03:23:18.421Z,34.17
2023-02-17T03:25:45.220Z,36.97
2023-02-17T03:28:12.761Z,35.60
2023-02-17T03:30:41.369Z,36.15
2023-02-17T03:33:09.578Z,37.97
2023-02-17T03:35:36.776Z,38.40
2023-02-17T03:38:03.630Z,36.65
2023-02-17T03:40:30.392Z,33.17
2023-02-17T03:42:57.843Z,34.97
2023-02-17T03:45:24.990Z,34.55
2023-02-17T03:47:52.377Z,36.95
2023-02-17T03:50:19.416Z,36.35
2023-02-17T03:52:46.638Z,35.30
2023-02-17T03:55:13.799Z,35.25
2023-02-17T03:57:40.962Z,35.33
2023-02-17T04:00:08.633Z,35.33
2023-02-17T04:02:44.017Z,35.03
2023-02-17T04:05:11.566Z,32.65
2023-02-17T04:07:39.032Z,33.17
2023-02-17T04:10:08.426Z,32.65
2023-02-17T04:12:36.776Z,31.33
2023-02-17T04:15:04.058Z,33.30
2023-02-17T04:17:31.477Z,32.20
2023-02-17T04:19:58.960Z,32.65
2023-02-17T04:22:26.234Z,32.10
2023-02-17T04:24:53.969Z,33.53
2023-02-17T04:27:22.115Z,34.08
2023-02-17T04:29:49.601Z,32.35
2023-02-17T04:32:16.519Z,32.42
2023-02-17T04:34:43.742Z,33.40
2023-02-17T04:37:10.751Z,34.38
2023-02-17T04:39:37.780Z,35.42
2023-02-17T04:42:05.016Z,35.53
2023-02-17T04:44:32.203Z,38.90
2023-02-17T04:46:59.274Z,32.85
2023-02-17T04:49:26.181Z,32.17
2023-02-17T04:51:53.215Z,32.42
2023-02-17T04:54:20.118Z,30.75
2023-02-17T04:56:47.085Z,28.42
2023-02-17T04:59:14.086Z,30.13
2023-02-17T05:01:41.045Z,29.40
2023-02-17T05:04:08.051Z,30.17
2023-02-17T05:06:35.479Z,31.90
2023-02-17T05:09:02.961Z,32.25
2023-02-17T05:11:31.683Z,31.38
2023-02-17T05:13:58.917Z,32.92
2023-02-17T05:16:25.947Z,32.70
2023-02-17T05:18:53.149Z,30.55
2023-02-17T05:21:22.121Z,30.63
2023-02-17T05:23:49.670Z,30.63
2023-02-17T05:26:17.477Z,30.95
2023-02-17T05:28:44.698Z,33.33
2023-02-17T05:31:12.601Z,32.65
2023-02-17T05:33:39.800Z,31.13
2023-02-17T05:36:08.795Z,30.85
2023-02-17T05:38:36.098Z,29.48
2023-02-17T05:41:03.435Z,26.42
2023-02-17T05:43:30.687Z,27.48
2023-02-17T05:46:01.607Z,30.45
2023-02-17T05:48:28.569Z,28.58
2023-02-17T05:50:56.355Z,27.60
2023-02-17T05:53:23.286Z,29.92
2023-02-17T05:55:50.801Z,26.25
2023-02-17T05:58:18.514Z,25.42
2023-02-17T06:00:46.958Z,24.23
2023-02-17T06:03:15.798Z,24.38
2023-02-17T06:05:42.852Z,25.30
2023-02-17T06:08:09.982Z,28.40
2023-02-17T06:10:37.113Z,52.00
2023-02-17T06:13:03.986Z,51.95
2023-02-17T06:15:31.151Z,44.08
2023-02-17T06:17:58.442Z,39.45
2023-02-17T06:20:26.124Z,34.63
2023-02-17T06:22:53.367Z,30.50
2023-02-17T06:25:20.487Z,27.58
2023-02-17T06:27:47.842Z,29.23
2023-02-17T06:30:15.122Z,26.23
2023-02-17T06:32:42.279Z,25.50
2023-02-17T06:35:09.251Z,25.50
2023-02-17T06:37:36.469Z,27.63
2023-02-17T06:40:03.754Z,26.77
2023-02-17T06:42:30.580Z,26.88
2023-02-17T06:44:58.275Z,25.10
2023-02-17T06:47:25.372Z,24.58
2023-02-17T06:49:52.764Z,23.85
2023-02-17T06:52:19.680Z,22.88
2023-02-17T06:54:47.487Z,21.35
2023-02-17T06:57:14.647Z,21.75
2023-02-17T06:59:41.644Z,22.65
2023-02-17T07:02:12.380Z,23.42
2023-02-17T07:04:41.435Z,28.60
2023-02-17T07:07:24.714Z,24.58
2023-02-17T07:17:07.148Z,22.63
2023-02-17T07:27:24.220Z,19.90
2023-02-17T07:30:35.034Z,20.58
2023-02-17T08:03:54.265Z,17.30
2023-02-17T08:06:24.722Z,18.10
2023-02-17T08:09:13.487Z,18.08
2023-02-17T08:12:19.635Z,16.77
2023-02-17T08:14:58.144Z,17.65
2023-02-17T08:22:37.724Z,16.35
2023-02-17T08:26:06.934Z,17.17
2023-02-17T08:31:55.549Z,17.25
2023-02-17T08:34:23.625Z,18.00
2023-02-17T08:36:57.445Z,16.15
2023-02-17T08:39:25.013Z,16.45
2023-02-17T08:41:55.082Z,17.17
2023-02-17T08:44:22.644Z,16.35
2023-02-17T08:46:51.006Z,16.13
2023-02-17T08:49:20.703Z,15.68
2023-02-17T08:51:48.190Z,19.05
2023-02-17T08:54:15.518Z,20.33
2023-02-17T08:56:43.379Z,20.67
2023-02-17T08:59:12.245Z,22.95
2023-02-17T09:01:43.278Z,21.58
2023-02-17T09:04:12.136Z,20.40
2023-02-17T09:06:49.649Z,21.15
2023-02-17T09:09:18.429Z,20.95
2023-02-17T09:11:49.765Z,21.50
2023-02-17T09:14:17.300Z,21.40
2023-02-17T09:16:46.932Z,20.00
2023-02-17T09:19:25.496Z,20.25
2023-02-17T09:21:56.242Z,19.80
2023-02-17T09:24:29.411Z,19.30
2023-02-17T09:32:59.418Z,21.85
2023-02-17T09:35:30.328Z,21.67
2023-02-17T09:38:07.781Z,20.98
2023-02-17T09:40:46.011Z,21.50
2023-02-17T09:43:28.094Z,21.63
2023-02-17T09:46:01.475Z,21.73
2023-02-17T09:48:31.882Z,20.63
2023-02-17T09:51:01.512Z,20.10
2023-02-17T09:54:08.448Z,19.30
2023-02-17T10:00:03.627Z,19.40
2023-02-17T10:03:13.691Z,19.70
2023-02-17T10:05:51.925Z,18.90
2023-02-17T10:09:05.742Z,17.85
2023-02-17T10:14:42.458Z,18.42
2023-02-17T10:17:36.257Z,18.73
2023-02-17T10:24:00.016Z,17.35
2023-02-17T10:27:38.368Z,18.33
2023-02-17T10:31:25.983Z,17.60
2023-02-17T10:34:31.619Z,17.30
2023-02-17T10:37:14.481Z,17.58
2023-02-17T10:39:59.403Z,16.48
2023-02-17T10:46:35.870Z,15.63
2023-02-17T10:52:42.409Z,18.70
2023-02-17T10:55:36.277Z,15.45
2023-02-17T10:58:18.190Z,16.40
2023-02-17T11:01:01.276Z,27.70
2023-02-17T11:03:42.172Z,15.02
2023-02-17T11:09:35.230Z,15.95
2023-02-17T11:12:32.022Z,20.13
2023-02-17T11:15:58.333Z,15.23
2023-02-17T11:18:50.520Z,14.80
2023-02-17T11:39:17.625Z,16.73
2023-02-17T11:42:04.441Z,16.75
2023-02-17T11:45:03.954Z,18.42
2023-02-17T11:52:05.193Z,17.48
2023-02-17T12:07:21.914Z,18.15
2023-02-17T12:09:59.847Z,18.65
2023-02-17T12:12:45.893Z,16.60
2023-02-17T12:15:22.374Z,16.05
2023-02-17T12:17:56.899Z,20.15
2023-02-17T12:20:33.758Z,16.98
2023-02-17T12:23:17.451Z,16.30
2023-02-17T12:25:51.005Z,17.25
2023-02-17T12:28:33.357Z,17.25
2023-02-17T12:31:11.338Z,17.20
2023-02-17T12:33:58.555Z,16.88
2023-02-17T12:36:33.730Z,16.40
2023-02-17T12:39:11.555Z,15.60
2023-02-17T12:41:44.412Z,16.38
2023-02-17T12:45:03.973Z,14.98
2023-02-17T12:47:35.490Z,14.73
2023-02-17T12:50:05.776Z,14.68
2023-02-17T12:52:37.545Z,16.25
2023-02-17T12:55:10.397Z,15.82
2023-02-17T12:57:37.225Z,15.40
2023-02-17T13:00:16.173Z,15.13
2023-02-17T13:02:43.551Z,15.23
2023-02-17T13:05:20.717Z,16.00
2023-02-17T13:08:19.945Z,14.93
2023-02-17T13:10:52.073Z,15.75
2023-02-17T13:13:26.864Z,14.70
2023-02-17T13:16:25.370Z,14.57
2023-02-17T13:18:52.511Z,15.18
2023-02-17T13:21:32.107Z,13.75
2023-02-17T13:24:03.695Z,15.40
2023-02-17T13:26:35.127Z,14.02
2023-02-17T13:29:21.094Z,15.18
2023-02-17T13:31:50.380Z,14.77
2023-02-17T13:34:25.238Z,14.45
2023-02-17T13:37:20.219Z,15.23
2023-02-17T13:39:47.640Z,14.35
2023-02-17T13:42:38.848Z,16.02
2023-02-17T13:45:50.374Z,16.95
2023-02-17T13:48:18.499Z,14.73
2023-02-17T13:50:55.823Z,16.70
2023-02-17T13:53:25.679Z,16.92
2023-02-17T13:56:01.538Z,16.55
2023-02-17T13:58:33.970Z,15.82
2023-02-17T14:01:11.492Z,16.40
2023-02-17T14:03:46.122Z,16.20
2023-02-17T14:06:28.478Z,15.90
2023-02-17T14:09:00.002Z,16.60
2023-02-17T14:11:35.982Z,16.95
2023-02-17T14:14:15.253Z,16.83
2023-02-17T14:16:45.794Z,19.27
2023-02-17T14:19:14.316Z,17.63
2023-02-17T14:21:42.394Z,17.73
2023-02-17T14:24:24.224Z,17.67
2023-02-17T14:26:56.130Z,17.08
2023-02-17T14:29:23.570Z,17.35
2023-02-17T14:31:51.642Z,17.52
2023-02-17T14:34:36.721Z,18.17
2023-02-17T14:37:11.399Z,18.27
2023-02-17T14:39:41.893Z,18.50
2023-02-17T14:42:11.518Z,18.13
2023-02-17T14:44:43.187Z,17.52
2023-02-17T14:47:12.814Z,17.70
2023-02-17T14:49:45.282Z,19.40
2023-02-17T14:52:20.667Z,20.55
2023-02-17T14:54:50.081Z,18.08
2023-02-17T14:57:17.771Z,19.48
2023-02-17T14:59:45.361Z,19.23
2023-02-17T15:02:17.235Z,19.42
2023-02-17T15:04:44.522Z,20.10
2023-02-17T15:07:16.302Z,22.48
2023-02-17T15:09:48.190Z,20.08
2023-02-17T15:12:17.091Z,20.33
2023-02-17T15:14:44.441Z,20.15
2023-02-17T15:17:11.539Z,19.73
2023-02-17T15:19:43.433Z,19.88
2023-02-17T15:22:13.730Z,19.52
2023-02-17T15:24:40.722Z,19.88
2023-02-17T15:27:07.685Z,20.98
2023-02-17T15:29:38.194Z,22.33
2023-02-17T15:32:10.953Z,23.98
2023-02-17T15:34:38.871Z,21.77
2023-02-17T15:37:06.883Z,21.00
2023-02-17T15:39:33.872Z,21.10
2023-02-17T15:42:34.926Z,21.75
2023-02-17T15:45:02.190Z,22.33
2023-02-17T15:47:37.086Z,22.80
2023-02-17T15:50:33.660Z,23.85
2023-02-17T15:55:42.676Z,22.05
2023-02-17T15:58:20.424Z,22.65
2023-02-17T16:00:51.324Z,23.25
2023-02-17T16:03:18.663Z,22.73
2023-02-17T16:05:45.786Z,25.17
2023-02-17T16:08:13.101Z,23.92
2023-02-17T16:10:42.484Z,23.98
2023-02-17T16:13:21.726Z,24.83
2023-02-17T16:15:49.128Z,23.63
2023-02-17T16:18:28.580Z,25.25
2023-02-17T16:20:56.878Z,25.13
2023-02-17T16:23:27.989Z,26.17
2023-02-17T16:26:07.178Z,25.05
2023-02-17T16:28:35.688Z,25.10
2023-02-17T16:31:08.728Z,25.83
2023-02-17T16:33:42.897Z,24.40
2023-02-17T16:36:17.923Z,26.48
2023-02-17T16:38:45.618Z,25.20
2023-02-17T16:41:16.009Z,28.85
2023-02-17T16:43:42.949Z,28.40
2023-02-17T16:46:39.404Z,27.20
2023-02-17T16:49:45.542Z,27.17
2023-02-17T16:52:28.622Z,26.38
2023-02-17T16:55:00.033Z,26.90
2023-02-17T16:57:41.021Z,28.23
2023-02-17T17:00:14.277Z,27.65
2023-02-17T17:02:46.864Z,26.35
2023-02-17T17:05:15.804Z,28.38
2023-02-17T17:07:42.944Z,33.17
2023-02-17T17:10:20.718Z,40.40
2023-02-17T17:12:47.439Z,29.67
2023-02-17T17:15:16.386Z,33.42
2023-02-17T17:17:45.926Z,31.67
2023-02-17T17:20:31.243Z,32.63
2023-02-17T17:23:00.196Z,30.38
2023-02-17T17:25:28.121Z,30.30
2023-02-17T17:27:56.211Z,31.10
2023-02-17T17:30:25.148Z,30.08
2023-02-17T17:32:52.696Z,37.70
2023-02-17T17:35:22.859Z,35.10
2023-02-17T17:37:49.666Z,31.02
2023-02-17T17:40:20.958Z,32.92
2023-02-17T17:42:47.895Z,31.48
2023-02-17T17:45:14.644Z,36.00
2023-02-17T17:47:44.234Z,32.90
2023-02-17T17:50:22.036Z,33.50
2023-02-17T17:52:49.892Z,32.03
2023-02-17T17:55:16.830Z,33.53
2023-02-17T17:57:44.059Z,34.60
2023-02-17T18:00:14.370Z,36.60
2023-02-17T18:02:44.213Z,35.22
2023-02-17T18:05:12.342Z,34.75
2023-02-17T18:07:40.135Z,34.00
2023-02-17T18:10:08.366Z,30.95
2023-02-17T18:12:35.424Z,34.33
2023-02-17T18:15:04.223Z,36.33
2023-02-17T18:17:34.669Z,34.13
2023-02-17T18:20:10.601Z,34.20
2023-02-17T18:22:38.481Z,35.28
2023-02-17T18:25:05.898Z,33.58
2023-02-17T18:27:42.579Z,32.33
2023-02-17T18:30:10.556Z,33.92
2023-02-17T18:32:37.454Z,32.90
2023-02-17T18:35:04.653Z,35.58
2023-02-17T18:37:31.694Z,34.78
2023-02-17T18:39:58.513Z,36.00
2023-02-17T18:42:25.263Z,34.75
2023-02-17T18:44:53.544Z,35.38
2023-02-17T18:50:16.374Z,35.63
2023-02-17T18:52:49.287Z,35.65
2023-02-17T18:55:19.328Z,34.37
2023-02-17T18:57:50.823Z,32.75
2023-02-17T19:00:42.018Z,36.42
2023-02-17T19:03:10.212Z,41.03
2023-02-17T19:05:37.007Z,53.85
2023-02-17T19:08:04.160Z,37.05
2023-02-17T19:10:31.225Z,41.95
2023-02-17T19:12:57.981Z,44.72
2023-02-17T19:15:24.963Z,43.60
2023-02-17T19:17:55.289Z,38.50
2023-02-17T19:20:22.967Z,40.03
2023-02-17T19:22:50.027Z,37.33
2023-02-17T19:25:17.276Z,37.20
2023-02-17T19:27:44.646Z,35.40
2023-02-17T19:30:12.388Z,32.13
2023-02-17T19:32:39.662Z,33.42
2023-02-17T19:35:07.125Z,33.20
2023-02-17T19:37:34.300Z,32.80
2023-02-17T19:40:01.149Z,35.17
2023-02-17T19:42:28.167Z,34.70
2023-02-17T19:44:55.132Z,34.30
2023-02-17T19:47:21.975Z,36.38
2023-02-17T19:49:48.801Z,34.70
2023-02-17T19:52:15.755Z,44.72
2023-02-17T19:54:42.704Z,36.95
2023-02-17T19:57:09.590Z,35.63
2023-02-17T19:59:36.465Z,37.08
2023-02-17T20:02:03.252Z,41.72
2023-02-17T20:04:30.425Z,39.80
2023-02-17T20:06:58.619Z,40.75
2023-02-17T20:09:25.542Z,46.28
2023-02-17T20:11:53.155Z,36.10
2023-02-17T20:14:20.195Z,38.97
2023-02-17T20:16:48.606Z,34.72
2023-02-17T20:19:15.999Z,31.52
2023-02-17T20:21:44.902Z,33.17
2023-02-17T20:24:12.367Z,34.88
2023-02-17T20:26:41.435Z,33.28
2023-02-17T20:29:08.601Z,33.85
2023-02-17T20:31:36.822Z,33.33
2023-02-17T20:34:05.395Z,30.08
2023-02-17T20:36:32.337Z,30.30
2023-02-17T20:38:59.196Z,29.15
2023-02-17T20:41:26.012Z,28.85
2023-02-17T20:43:52.869Z,34.15
2023-02-17T20:46:26.758Z,32.03
2023-02-17T20:51:20.306Z,31.17
2023-02-17T20:53:47.721Z,37.33
2023-02-17T20:56:15.918Z,37.15
2023-02-17T20:58:43.221Z,36.20
2023-02-17T21:01:10.827Z,34.80
2023-02-17T21:03:38.442Z,32.75
2023-02-17T21:06:14.676Z,34.42
2023-02-17T21:08:41.411Z,34.47
2023-02-17T21:11:08.268Z,34.60
2023-02-17T21:13:36.354Z,36.58
2023-02-17T21:16:03.168Z,33.17
2023-02-17T21:18:29.913Z,34.83
2023-02-17T21:20:57.451Z,34.72
2023-02-17T21:23:24.376Z,35.85
2023-02-17T21:25:51.331Z,37.95
2023-02-17T21:28:18.589Z,36.88
2023-02-17T21:30:46.966Z,36.78
2023-02-17T21:33:14.060Z,36.47
2023-02-17T21:35:40.810Z,36.28
2023-02-17T21:38:07.529Z,36.80
2023-02-17T21:40:37.779Z,36.88
2023-02-17T21:43:23.726Z,37.28
2023-02-17T21:45:50.486Z,39.83
2023-02-17T21:48:17.169Z,38.38
2023-02-17T21:50:44.803Z,38.28
2023-02-17T21:53:11.534Z,38.53
2023-02-17T21:55:38.710Z,34.83
2023-02-17T21:58:05.872Z,32.97
2023-02-17T22:00:36.777Z,35.03
2023-02-17T22:03:03.735Z,34.97
2023-02-17T22:05:31.819Z,31.98
2023-02-17T22:07:58.618Z,36.53
2023-02-17T22:10:25.429Z,33.97
2023-02-17T22:12:53.023Z,32.53
2023-02-17T22:15:19.841Z,32.38
2023-02-17T22:17:48.014Z,31.38
2023-02-17T22:20:19.838Z,32.17
2023-02-17T22:22:46.872Z,31.05
2023-02-17T22:25:14.043Z,36.20
2023-02-17T22:27:41.336Z,33.25
2023-02-17T22:30:09.881Z,34.00
2023-02-17T22:32:37.208Z,36.35
2023-02-17T22:35:04.528Z,33.53
2023-02-17T22:37:31.236Z,33.67
2023-02-17T22:39:58.067Z,35.70
2023-02-17T22:42:28.191Z,36.63
2023-02-17T22:44:54.849Z,37.67
2023-02-17T22:47:21.742Z,37.53
2023-02-17T22:49:48.631Z,36.15
2023-02-17T22:52:15.495Z,33.78
2023-02-17T22:54:44.062Z,35.65
2023-02-17T22:57:10.800Z,33.72
2023-02-17T22:59:37.638Z,33.60
2023-02-17T23:02:04.424Z,34.55
2023-02-17T23:04:31.266Z,37.20
2023-02-17T23:06:59.008Z,36.22
2023-02-17T23:09:25.747Z,37.17
2023-02-17T23:11:57.606Z,43.83
2023-02-17T23:14:28.877Z,39.03
2023-02-17T23:16:58.049Z,37.33
2023-02-17T23:19:27.469Z,38.67
2023-02-17T23:21:56.172Z,41.03
2023-02-17T23:24:23.892Z,40.22
2023-02-17T23:26:51.081Z,40.75
2023-02-17T23:29:18.547Z,35.10
2023-02-17T23:31:45.608Z,36.05
2023-02-17T23:34:13.555Z,34.13
2023-02-17T23:36:40.976Z,32.35
2023-02-17T23:39:08.357Z,32.22
2023-02-17T23:41:36.170Z,31.75
2023-02-17T23:44:03.078Z,29.88
2023-02-17T23:46:30.048Z,29.63
2023-02-17T23:48:57.073Z,34.47
2023-02-17T23:51:23.943Z,32.72
2023-02-17T23:53:50.727Z,33.60
2023-02-17T23:56:22.523Z,35.72
2023-02-17T23:58:49.844Z,34.55
